Time;durP1;ratioP1;P1;durP2;ratioP2;P2;SDS_P1;SDS_P2;PMS_P1;PMS_P2;Temp;Humidity;BMP_temperature;BMP_pressure;BME280_temperature;BME280_humidity;BME280_pressure;Samples;Min_cycle;Max_cycle;Signal;HPM_P1;HPM_P2
2022/12/22 03:26:06;;;;;;;3.00;2.50;;;;;;;17.49;55.27;100278.09;6309221;22;20293;-83
2022/12/22 03:28:31;;;;;;;3.00;2.70;;;;;;;17.48;55.31;100274.66;6256041;22;20007;-84
2022/12/22 03:30:59;;;;;;;3.38;2.70;;;;;;;17.48;55.49;100278.97;6256008;22;20004;-84
2022/12/22 03:33:29;;;;;;;3.10;2.53;;;;;;;17.48;55.39;100287.66;6281877;22;20033;-84
2022/12/22 03:35:59;;;;;;;2.80;2.47;;;;;;;17.48;55.37;100287.66;6281646;22;20086;-84
2022/12/22 03:38:25;;;;;;;4.95;3.05;;;;;;;17.48;55.31;100285.06;6281651;22;19999;-84
2022/12/22 03:40:51;;;;;;;3.83;2.55;;;;;;;17.47;55.40;100291.13;6281899;22;20058;-84
2022/12/22 03:48:43;;;;;;;3.47;2.80;;;;;;;17.47;55.27;100287.69;6285595;22;20011;-84
2022/12/22 03:51:09;;;;;;;3.60;2.72;;;;;;;17.47;55.43;100287.69;6281610;22;20005;-81
2022/12/22 03:53:35;;;;;;;3.20;2.47;;;;;;;17.48;55.35;100291.97;6308469;22;19995;-84
2022/12/22 03:56:00;;;;;;;3.30;2.90;;;;;;;17.47;55.34;100291.13;6281270;22;20056;-84
2022/12/22 03:58:27;;;;;;;3.28;2.97;;;;;;;17.47;55.43;100290.28;6281512;22;20007;-84
2022/12/22 04:01:03;;;;;;;3.85;2.97;;;;;;;17.46;55.29;100298.94;6256055;22;20003;-84
2022/12/22 04:03:29;;;;;;;3.72;3.10;;;;;;;17.47;55.27;100293.72;6281303;22;20007;-83
2022/12/22 04:05:54;;;;;;;3.72;2.95;;;;;;;17.46;55.14;100289.44;6282391;22;20018;-84
2022/12/22 04:08:20;;;;;;;3.33;3.00;;;;;;;17.46;55.29;100291.16;6230679;22;20011;-84
2022/12/22 04:13:29;;;;;;;3.35;2.92;;;;;;;17.46;55.19;100288.56;6285522;22;20037;-84
2022/12/22 04:15:54;;;;;;;3.22;2.53;;;;;;;17.45;55.30;100290.31;6255543;22;20011;-81
2022/12/22 04:18:20;;;;;;;3.42;3.13;;;;;;;17.45;55.19;100294.66;6281075;22;20083;-82
2022/12/22 04:20:45;;;;;;;3.00;2.70;;;;;;;17.46;55.15;100298.94;6255795;22;20006;-82
2022/12/22 04:23:11;;;;;;;3.00;2.70;;;;;;;17.45;55.33;100298.09;6281637;22;20011;-83
2022/12/22 04:25:36;;;;;;;3.50;2.60;;;;;;;17.45;55.23;100292.06;6230783;22;20029;-82
2022/12/22 04:28:02;;;;;;;2.78;2.50;;;;;;;17.44;55.55;100296.41;6282833;22;20007;-82
2022/12/22 04:30:27;;;;;;;3.00;2.70;;;;;;;17.44;55.36;100301.59;6281307;22;20007;-81
2022/12/22 04:32:52;;;;;;;2.83;2.40;;;;;;;17.45;55.39;100307.66;6281015;22;20056;-81
2022/12/22 04:35:18;;;;;;;2.88;2.55;;;;;;;17.44;54.97;100309.41;6255385;22;20007;-83
2022/12/22 04:37:43;;;;;;;3.22;2.75;;;;;;;17.44;55.36;100308.53;6255415;22;20085;-82
2022/12/22 04:40:09;;;;;;;2.58;2.35;;;;;;;17.43;55.39;100299.88;6281222;22;20401;-83
2022/12/22 04:42:34;;;;;;;3.38;2.30;;;;;;;17.44;55.19;100292.91;6230339;22;20013;-83
2022/12/22 04:45:00;;;;;;;2.85;2.40;;;;;;;17.44;55.05;100295.53;6281091;22;20011;-81
2022/12/22 04:47:28;;;;;;;2.85;2.35;;;;;;;17.43;55.12;100299.88;6255395;22;20007;-84
2022/12/22 04:49:54;;;;;;;2.42;2.22;;;;;;;17.44;55.36;100306.81;6281520;22;20018;-83
2022/12/22 04:52:20;;;;;;;3.72;2.63;;;;;;;17.43;55.19;100305.06;6256288;22;20086;-84
2022/12/22 04:54:45;;;;;;;3.53;2.50;;;;;;;17.43;55.32;100301.63;6281007;22;20512;-83
2022/12/22 04:57:11;;;;;;;2.80;2.22;;;;;;;17.42;55.37;100297.28;6255330;22;20010;-83
2022/12/22 04:59:36;;;;;;;2.83;2.53;;;;;;;17.42;55.26;100285.16;6255561;22;20093;-85
2022/12/22 05:02:02;;;;;;;3.15;2.58;;;;;;;17.42;55.29;100285.16;6255128;22;20011;-84
2022/12/22 05:04:27;;;;;;;2.55;2.35;;;;;;;17.41;55.37;100287.78;6280793;22;20014;-84
2022/12/22 05:06:52;;;;;;;2.70;2.35;;;;;;;17.41;55.26;100299.03;6255080;22;20090;-83
2022/12/22 05:09:18;;;;;;;3.30;2.72;;;;;;;17.40;55.34;100294.72;6255188;22;20082;-84
2022/12/22 05:11:43;;;;;;;3.13;2.55;;;;;;;17.42;55.30;100310.28;6229851;22;20007;-83
2022/12/22 05:14:09;;;;;;;3.05;2.60;;;;;;;17.42;55.12;100323.28;6255531;22;20003;-82
2022/12/22 05:16:34;;;;;;;3.10;2.63;;;;;;;17.41;55.37;100324.19;6255571;22;20461;-84
2022/12/22 05:18:59;;;;;;;2.92;2.63;;;;;;;17.41;55.11;100332.84;6263588;22;20017;-82
2022/12/22 05:21:28;;;;;;;2.90;2.60;;;;;;;17.40;55.06;100325.94;6289705;22;20004;-82
2022/12/22 05:23:53;;;;;;;3.13;2.50;;;;;;;17.40;55.20;100331.16;6288307;22;20011;-84
2022/12/22 05:26:18;;;;;;;2.90;2.60;;;;;;;17.41;55.25;100345.00;6230179;22;20083;-83
2022/12/22 05:28:46;;;;;;;2.80;2.50;;;;;;;17.40;55.16;100335.50;6255832;22;20014;-83
2022/12/22 05:31:20;;;;;;;3.20;2.90;;;;;;;17.40;55.23;100338.94;6280981;22;20416;-84
2022/12/22 05:33:45;;;;;;;3.40;2.88;;;;;;;17.41;55.24;100337.19;6308330;22;20003;-85
2022/12/22 05:36:11;;;;;;;3.05;2.75;;;;;;;17.40;55.24;100341.56;6280800;22;20018;-85
2022/12/22 05:38:37;;;;;;;3.03;2.72;;;;;;;17.39;55.27;100334.63;6281020;22;20018;-84
2022/12/22 05:41:02;;;;;;;3.33;2.70;;;;;;;17.39;55.12;100328.56;6281268;22;20023;-85
2022/12/22 05:43:28;;;;;;;2.85;2.60;;;;;;;17.39;55.32;100328.56;6281059;22;20050;-84
2022/12/22 05:45:53;;;;;;;3.20;2.75;;;;;;;17.39;55.13;100324.22;6255738;22;20061;-84
2022/12/22 05:48:19;;;;;;;3.42;2.60;;;;;;;17.38;55.08;100332.06;6280732;22;20336;-85
2022/12/22 05:50:44;;;;;;;3.00;2.55;;;;;;;17.38;55.08;100340.72;6280779;22;20026;-84
2022/12/22 05:53:10;;;;;;;2.88;2.53;;;;;;;17.39;55.19;100351.97;6282758;22;20046;-84
2022/12/22 05:55:35;;;;;;;2.80;2.50;;;;;;;17.37;55.11;100346.78;6282996;22;20007;-84
2022/12/22 05:58:01;;;;;;;3.22;2.60;;;;;;;17.37;55.13;100352.00;6257558;22;20003;-83
2022/12/22 06:00:28;;;;;;;3.03;2.72;;;;;;;17.37;55.45;100353.75;6257555;22;20089;-85
2022/12/22 06:02:54;;;;;;;3.15;2.65;;;;;;;17.36;55.14;100355.50;6283007;22;20014;-83
2022/12/22 06:05:19;;;;;;;3.00;2.70;;;;;;;17.36;55.47;100342.47;6282912;22;20011;-83
2022/12/22 06:07:45;;;;;;;3.90;3.08;;;;;;;17.37;55.29;100344.19;6257693;22;20420;-83
2022/12/22 06:10:11;;;;;;;3.33;2.58;;;;;;;17.36;54.91;100347.69;6257015;22;20082;-78
2022/12/22 06:12:36;;;;;;;2.83;2.50;;;;;;;17.35;55.06;100358.97;6282824;22;20003;-84
2022/12/22 06:15:03;;;;;;;2.90;2.45;;;;;;;17.35;55.06;100360.72;6282706;22;20292;-85
2022/12/22 06:17:28;;;;;;;4.15;2.58;;;;;;;17.34;55.27;100365.06;6282429;22;20443;-84
2022/12/22 06:19:53;;;;;;;3.20;2.25;;;;;;;17.34;55.50;100375.47;6282895;22;20007;-86
2022/12/22 06:22:19;;;;;;;3.25;2.05;;;;;;;17.35;55.27;100384.13;6257391;22;20007;-86
2022/12/22 06:24:44;;;;;;;3.63;2.20;;;;;;;17.34;55.42;100375.47;6257531;22;20313;-81
2022/12/22 06:27:11;;;;;;;3.28;1.90;;;;;;;17.35;55.51;100376.31;6257304;22;20007;-84
2022/12/22 06:29:36;;;;;;;2.97;1.95;;;;;;;17.34;55.29;100380.66;6257406;22;20025;-83
2022/12/22 06:32:02;;;;;;;2.97;1.90;;;;;;;17.34;55.34;100379.81;6257309;22;20008;-79
2022/12/22 06:34:27;;;;;;;4.43;1.75;;;;;;;17.34;55.35;100385.88;6256934;22;20037;-81
2022/12/22 06:36:53;;;;;;;2.50;1.60;;;;;;;17.35;55.24;100386.72;6257043;22;20003;-83
2022/12/22 06:39:19;;;;;;;2.85;1.65;;;;;;;17.34;55.28;100380.66;6282949;22;20056;-81
2022/12/22 06:44:28;;;;;;;2.22;1.58;;;;;;;17.35;55.50;100394.50;6264948;22;20046;-82
2022/12/22 06:46:54;;;;;;;2.63;1.70;;;;;;;17.34;55.40;100398.88;6256738;22;20331;-79
2022/12/22 06:49:22;;;;;;;1.63;1.30;;;;;;;17.35;55.64;100402.31;6231993;22;20003;-81
2022/12/22 06:51:48;;;;;;;2.58;1.40;;;;;;;17.36;55.44;100407.50;6257142;22;20014;-82
2022/12/22 06:54:14;;;;;;;2.42;1.20;;;;;;;17.36;55.60;100411.84;6309848;22;20419;-83
2022/12/22 06:56:39;;;;;;;1.92;1.33;;;;;;;17.36;55.47;100415.31;6232540;22;20003;-81
2022/12/22 06:59:04;;;;;;;1.80;1.15;;;;;;;17.36;55.43;100415.31;6259909;22;20308;-80
2022/12/22 07:01:30;;;;;;;2.53;1.25;;;;;;;17.36;55.62;100417.91;6237981;22;20026;-80
2022/12/22 07:03:58;;;;;;;2.90;1.10;;;;;;;17.37;55.43;100410.97;6236649;22;20003;-82
2022/12/22 07:06:24;;;;;;;1.58;0.90;;;;;;;17.35;55.44;100405.78;6288721;22;20003;-82
2022/12/22 07:08:49;;;;;;;1.40;1.02;;;;;;;17.35;55.50;100405.78;6290798;22;20068;-81
2022/12/22 07:11:15;;;;;;;1.77;1.00;;;;;;;17.36;55.63;100411.84;6264595;22;20373;-82
2022/12/22 07:13:41;;;;;;;1.92;1.10;;;;;;;17.35;55.61;100416.19;6317849;22;19999;-85
2022/12/22 07:16:13;;;;;;;1.85;1.13;;;;;;;17.36;55.63;100422.25;6264166;22;20023;-82
2022/12/22 07:18:40;;;;;;;1.25;0.85;;;;;;;17.35;55.60;100426.56;6264309;22;20014;-82
2022/12/22 07:21:11;;;;;;;2.03;1.00;;;;;;;17.36;55.55;100433.50;6290010;22;20006;-82
2022/12/22 07:23:38;;;;;;;3.30;1.10;;;;;;;17.35;55.59;100436.97;6288523;22;20003;-81
2022/12/22 07:26:05;;;;;;;2.05;1.10;;;;;;;17.35;55.47;100426.56;6262604;22;20449;-80
2022/12/22 07:28:35;;;;;;;2.55;1.20;;;;;;;17.36;55.56;100440.47;6263370;22;20029;-82
2022/12/22 07:31:01;;;;;;;1.80;0.95;;;;;;;17.37;55.77;100444.78;6289749;22;20006;-82
2022/12/22 07:33:27;;;;;;;2.03;1.15;;;;;;;17.38;55.84;100441.31;6258912;22;20090;-81
2022/12/22 07:36:04;;;;;;;2.33;0.90;;;;;;;17.38;55.66;100433.50;6284079;22;19995;-80
2022/12/22 07:38:41;;;;;;;3.63;0.85;;;;;;;17.36;55.61;100428.31;6262937;22;20003;-80
2022/12/22 07:42:43;;;;;;;3.03;0.88;;;;;;;17.37;55.74;100436.97;6259827;22;20094;-78
2022/12/22 07:43:55;;;;;;;1.13;0.73;;;;;;;17.36;55.59;100445.66;6312839;22;20010;-81
2022/12/22 07:46:22;;;;;;;2.40;0.82;;;;;;;17.36;55.70;100458.66;6285658;22;20011;-84
2022/12/22 07:51:33;;;;;;;2.75;0.90;;;;;;;17.34;55.69;100461.28;6289555;22;20011;-82
2022/12/22 07:53:58;;;;;;;2.05;0.90;;;;;;;17.33;55.63;100464.75;6284709;22;20003;-82
2022/12/22 07:56:24;;;;;;;1.98;0.90;;;;;;;17.33;55.76;100464.75;6285549;22;20007;-81
2022/12/22 07:58:52;;;;;;;1.42;0.90;;;;;;;17.34;55.77;100465.63;6258772;22;20054;-81
2022/12/22 08:01:18;;;;;;;2.05;1.00;;;;;;;17.32;55.73;100476.06;6260489;22;20386;-82
2022/12/22 08:03:44;;;;;;;7.00;1.55;;;;;;;17.39;56.02;100474.22;6282742;22;20074;-79
2022/12/22 08:06:09;;;;;;;13.43;2.40;;;;;;;17.45;55.83;100477.59;6283019;22;20443;-78
2022/12/22 08:08:35;;;;;;;6.97;2.10;;;;;;;17.50;55.70;100485.31;6257026;22;20069;-80
2022/12/22 08:11:01;;;;;;;6.40;2.05;;;;;;;17.53;55.82;100490.50;6256509;22;20516;-78
2022/12/22 08:13:27;;;;;;;8.88;2.45;;;;;;;17.54;55.79;100493.94;6256745;22;20010;-78
2022/12/22 08:15:53;;;;;;;4.50;1.98;;;;;;;17.56;55.79;100497.41;6308448;22;20011;-77
2022/12/22 08:18:18;;;;;;;5.72;1.70;;;;;;;17.56;55.80;100498.25;6256061;22;19999;-77
2022/12/22 08:20:50;;;;;;;6.00;1.88;;;;;;;17.55;55.58;100508.66;6281915;22;20026;-78
2022/12/22 08:23:16;;;;;;;5.93;2.10;;;;;;;17.56;55.60;100497.41;6256564;22;20018;-78
2022/12/22 08:25:44;;;;;;;6.53;2.20;;;;;;;17.56;55.65;100498.25;6231050;22;20317;-77
2022/12/22 08:28:11;;;;;;;4.93;1.90;;;;;;;17.57;55.74;100507.78;6281899;22;20439;-77
2022/12/22 08:30:39;;;;;;;6.20;2.25;;;;;;;17.57;55.71;100510.38;6281168;22;20007;-77
2022/12/22 08:33:05;;;;;;;4.18;1.92;;;;;;;17.58;55.60;100516.44;6255770;22;20373;-77
2022/12/22 08:35:30;;;;;;;9.27;2.30;;;;;;;17.59;55.69;100520.75;6282526;22;20036;-77
2022/12/22 08:37:56;;;;;;;5.40;1.90;;;;;;;17.59;55.34;100523.34;6255810;22;20007;-78
2022/12/22 08:40:24;;;;;;;5.43;2.08;;;;;;;17.59;55.45;100518.16;6255624;22;20133;-77
2022/12/22 08:42:53;;;;;;;3.70;1.80;;;;;;;17.59;55.59;100515.56;6280845;22;20042;-78
2022/12/22 08:45:19;;;;;;;4.70;1.80;;;;;;;17.61;55.29;100524.19;6306852;22;20016;-77
2022/12/22 08:47:44;;;;;;;4.43;1.70;;;;;;;17.61;55.50;100527.66;6230632;22;20376;-79
2022/12/22 08:50:10;;;;;;;3.47;1.63;;;;;;;17.61;55.53;100526.78;6255888;22;20007;-77
2022/12/22 08:52:36;;;;;;;4.53;2.13;;;;;;;17.64;55.37;100531.97;6282079;22;20057;-80
2022/12/22 08:55:01;;;;;;;4.03;1.70;;;;;;;17.65;55.45;100536.28;6281105;22;20003;-80
2022/12/22 08:57:27;;;;;;;4.88;1.90;;;;;;;17.65;55.43;100536.28;6255754;22;20053;-77
2022/12/22 08:59:52;;;;;;;5.03;1.70;;;;;;;17.65;55.43;100529.31;6281222;22;20050;-79
2022/12/22 09:02:18;;;;;;;4.60;1.60;;;;;;;17.67;55.28;100534.53;6281371;22;20083;-79
2022/12/22 09:04:43;;;;;;;4.32;2.22;;;;;;;17.68;55.34;100533.63;6256236;22;20320;-77
2022/12/22 09:07:09;;;;;;;5.38;2.08;;;;;;;17.68;55.38;100542.31;6230381;22;20011;-77
2022/12/22 09:09:35;;;;;;;7.07;1.80;;;;;;;17.69;55.24;100546.63;6255889;22;20343;-79
2022/12/22 09:12:01;;;;;;;3.80;1.63;;;;;;;17.71;55.24;100553.56;6308882;22;20002;-80
2022/12/22 09:14:28;;;;;;;3.72;1.92;;;;;;;17.70;55.29;100555.28;6256025;22;20007;-79
2022/12/22 09:16:53;;;;;;;3.55;1.50;;;;;;;17.69;55.10;100550.97;6255658;22;20098;-81
2022/12/22 09:19:19;;;;;;;3.17;1.77;;;;;;;17.68;55.04;100544.03;6255615;22;20030;-80
2022/12/22 09:21:44;;;;;;;4.13;1.70;;;;;;;17.68;55.14;100542.31;6255543;22;20482;-82
2022/12/22 09:24:10;;;;;;;5.32;2.08;;;;;;;17.67;55.25;100537.97;6308918;22;20003;-84
2022/12/22 09:26:36;;;;;;;4.25;1.85;;;;;;;17.67;55.02;100547.53;6258491;22;20008;-83
2022/12/22 09:29:02;;;;;;;3.58;1.70;;;;;;;17.66;54.95;100553.63;6285019;22;20488;-82
2022/12/22 09:31:28;;;;;;;3.78;1.83;;;;;;;17.64;55.22;100553.66;6284357;22;20431;-82
2022/12/22 09:33:54;;;;;;;3.80;1.83;;;;;;;17.65;55.14;100557.09;6258775;22;20010;-81
2022/12/22 09:36:22;;;;;;;4.32;1.90;;;;;;;17.63;54.91;100564.06;6283635;22;20003;-82
2022/12/22 09:38:48;;;;;;;5.20;1.83;;;;;;;17.62;55.27;100563.22;6283442;22;20050;-81
2022/12/22 09:41:26;;;;;;;3.33;1.50;;;;;;;17.61;55.05;100574.50;6283261;22;20428;-82
2022/12/22 09:43:52;;;;;;;9.73;1.83;;;;;;;17.61;55.09;100571.88;6283244;22;20003;-82
2022/12/22 09:46:23;;;;;;;3.97;1.80;;;;;;;17.61;55.02;100578.84;6283941;22;20374;-80
2022/12/22 09:48:49;;;;;;;3.17;1.52;;;;;;;17.60;55.13;100580.59;6311186;22;20014;-83
2022/12/22 09:51:16;;;;;;;2.65;1.23;;;;;;;17.60;55.16;100579.72;6282998;22;20007;-81
2022/12/22 09:53:50;;;;;;;3.25;1.60;;;;;;;17.60;55.08;100570.19;6310182;22;20029;-82
2022/12/22 09:56:16;;;;;;;;;;;;;;;17.60;55.21;100574.53;6283957;22;20007;-83
2022/12/22 09:58:42;;;;;;;5.20;1.63;;;;;;;17.60;55.08;100574.53;6286083;22;19903;-82
2022/12/22 10:01:31;;;;;;;2.55;1.38;;;;;;;17.59;54.96;100571.03;6286157;22;20063;-81
2022/12/22 10:04:08;;;;;;;4.05;1.50;;;;;;;17.59;55.17;100578.84;6285496;22;19999;-81
2022/12/22 10:07:12;;;;;;;2.42;1.33;;;;;;;17.58;55.03;100584.09;6283621;22;20420;-82
2022/12/22 10:09:38;;;;;;;;;;;;;;;17.58;55.02;100584.09;6310580;22;20023;-83
2022/12/22 10:12:05;;;;;;;2.95;1.30;;;;;;;17.58;55.38;100579.75;6283290;22;19914;-82
2022/12/22 10:14:35;;;;;;;3.50;1.48;;;;;;;17.58;54.89;100584.94;6310096;22;20386;-82
2022/12/22 10:17:22;;;;;;;3.00;1.38;;;;;;;17.57;55.01;100585.84;6282485;22;20027;-83
2022/12/22 10:19:53;;;;;;;3.50;1.40;;;;;;;17.58;55.15;100584.94;6282835;22;20057;-82
2022/12/22 10:22:32;;;;;;;2.92;1.38;;;;;;;17.57;54.96;100583.25;6282312;22;20006;-81
2022/12/22 10:25:02;;;;;;;3.17;1.30;;;;;;;17.57;55.07;100600.56;6281961;22;20007;-83
2022/12/22 10:27:34;;;;;;;4.18;1.80;;;;;;;17.57;55.03;100595.38;6282473;22;19999;-81
2022/12/22 10:30:19;;;;;;;3.15;1.40;;;;;;;17.57;55.08;100598.84;6310156;22;20312;-80
2022/12/22 10:33:11;;;;;;;2.63;1.48;;;;;;;17.59;55.04;100607.47;6282207;22;20002;-83
2022/12/22 10:35:53;;;;;;;4.28;1.60;;;;;;;17.58;55.13;100610.13;6282322;22;20327;-83
2022/12/22 10:38:26;;;;;;;4.20;1.40;;;;;;;17.58;54.95;100607.50;6281785;22;20042;-82
2022/12/22 10:40:55;;;;;;;2.97;1.30;;;;;;;17.58;55.01;100608.38;6282551;22;20004;-82
2022/12/22 10:43:28;;;;;;;2.38;1.30;;;;;;;17.59;54.92;100611.81;6281940;22;20331;-81
2022/12/22 10:45:55;;;;;;;2.45;1.30;;;;;;;17.60;54.78;100606.59;6309359;22;20007;-81
2022/12/22 10:48:29;;;;;;;3.35;1.50;;;;;;;17.60;54.86;100606.59;6282721;22;20094;-81
2022/12/22 10:51:01;;;;;;;2.95;1.17;;;;;;;17.60;54.83;100604.00;6281812;22;20003;-82
2022/12/22 10:53:56;;;;;;;3.55;1.58;;;;;;;17.60;54.77;100606.59;6281773;22;20030;-80
2022/12/22 10:56:30;;;;;;;3.20;1.33;;;;;;;17.59;54.98;100602.25;6224591;22;20011;-81
2022/12/22 10:59:22;;;;;;;2.75;1.30;;;;;;;17.60;54.98;100598.81;6282007;22;20003;-79
2022/12/22 11:01:48;;;;;;;2.08;1.10;;;;;;;17.60;54.92;100603.16;6309023;22;20009;-80
2022/12/22 11:04:31;;;;;;;2.40;0.90;;;;;;;17.60;54.75;100610.97;6256371;22;20027;-82
2022/12/22 11:06:58;;;;;;;2.28;1.05;;;;;;;17.61;54.84;100617.88;6256309;22;20018;-82
2022/12/22 11:09:25;;;;;;;2.70;1.40;;;;;;;17.61;54.74;100616.13;6256270;22;20012;-81
2022/12/22 11:12:04;;;;;;;3.08;1.20;;;;;;;17.63;54.72;100614.34;6309429;22;19999;-81
2022/12/22 11:15:01;;;;;;;2.58;1.20;;;;;;;17.63;54.79;100619.56;6282602;22;20003;-80
2022/12/22 11:18:04;;;;;;;3.05;1.20;;;;;;;17.64;54.62;100625.66;6281568;22;20050;-81
2022/12/22 11:20:48;;;;;;;2.15;1.10;;;;;;;17.63;54.78;100621.31;6281763;22;20007;-82
2022/12/22 11:23:37;;;;;;;2.60;1.15;;;;;;;17.63;54.78;100621.31;6281513;22;20442;-82
2022/12/22 11:26:29;;;;;;;1.80;1.00;;;;;;;17.63;54.72;100632.56;6281607;22;19999;-81
2022/12/22 11:29:13;;;;;;;2.47;1.05;;;;;;;17.64;54.74;100625.66;6281412;22;20048;-83
2022/12/22 11:31:50;;;;;;;3.83;1.30;;;;;;;17.64;54.67;100621.31;6308975;22;20446;-81
2022/12/22 11:34:23;;;;;;;3.60;1.17;;;;;;;17.64;54.54;100628.25;6281407;22;20003;-83
2022/12/22 11:37:26;;;;;;;2.47;1.10;;;;;;;17.64;54.58;100621.31;6308936;22;20056;-82
2022/12/22 11:40:30;;;;;;;2.95;1.20;;;;;;;17.62;54.52;100611.78;6281320;22;20049;-81
2022/12/22 11:43:28;;;;;;;4.10;1.20;;;;;;;17.62;54.63;100623.06;6282061;22;20390;-80
2022/12/22 11:45:53;;;;;;;3.35;1.10;;;;;;;17.60;54.75;100611.81;6281287;22;20328;-83
2022/12/22 11:48:24;;;;;;;2.97;1.00;;;;;;;17.62;54.53;100630.00;6281441;22;20006;-82
2022/12/22 11:50:55;;;;;;;1.27;0.80;;;;;;;17.61;54.59;100626.53;6281611;22;20359;-83
2022/12/22 11:53:39;;;;;;;1.67;0.98;;;;;;;17.61;54.63;100616.13;6281129;22;20003;-81
2022/12/22 11:56:46;;;;;;;2.50;1.10;;;;;;;17.62;54.62;100617.00;6281588;22;20405;-82
2022/12/22 11:59:29;;;;;;;3.47;1.15;;;;;;;17.72;56.61;100620.31;6282392;22;20008;-75
2022/12/22 12:02:09;;;;;;;13.63;4.05;;;;;;;17.55;60.99;100633.56;6281419;22;20441;-77
2022/12/22 12:04:59;;;;;;;12.70;2.97;;;;;;;17.41;60.48;100624.19;6281714;22;20097;-78
2022/12/22 12:07:37;;;;;;;9.55;2.13;;;;;;;17.18;60.16;100626.19;6281251;22;20431;-77
2022/12/22 12:10:18;;;;;;;7.55;2.45;;;;;;;17.02;61.03;100623.75;6281498;22;20003;-77
2022/12/22 12:12:58;;;;;;;3.70;2.10;;;;;;;16.91;61.52;100625.59;6281024;22;20010;-77
2022/12/22 12:15:33;;;;;;;5.13;1.88;;;;;;;16.83;60.92;100630.00;6280809;22;20015;-78
2022/12/22 12:18:22;;;;;;;3.67;1.40;;;;;;;16.77;60.64;100630.06;6280846;22;20431;-78
2022/12/22 12:21:17;;;;;;;3.80;1.60;;;;;;;16.72;60.63;100629.22;6280839;22;19995;-77
2022/12/22 12:24:00;;;;;;;2.35;1.38;;;;;;;16.71;60.21;100615.38;6280872;22;20006;-77
2022/12/22 12:26:37;;;;;;;3.03;1.50;;;;;;;16.70;60.58;100615.38;6281065;22;20086;-77
2022/12/22 12:29:18;;;;;;;2.83;1.25;;;;;;;16.68;59.89;100610.22;6280832;22;20003;-78
2022/12/22 12:32:10;;;;;;;2.45;1.20;;;;;;;16.65;60.14;100624.06;6280877;22;20006;-78
2022/12/22 12:34:41;;;;;;;3.13;1.40;;;;;;;16.61;60.06;100625.00;6280927;22;20402;-77
2022/12/22 12:37:35;;;;;;;2.30;1.30;;;;;;;16.58;60.23;100627.63;6280825;22;20064;-78
2022/12/22 12:40:10;;;;;;;;;;;;;;;16.59;60.49;100625.88;6284337;22;20006;-77
2022/12/22 12:42:45;;;;;;;2.55;1.33;;;;;;;16.56;60.69;100629.34;6281458;22;20238;-78
2022/12/22 12:45:35;;;;;;;1.73;1.20;;;;;;;16.54;60.47;100636.31;6281429;22;20015;-77
2022/12/22 12:48:19;;;;;;;2.38;1.17;;;;;;;16.53;60.45;100632.00;6280973;22;20003;-77
2022/12/22 12:50:44;;;;;;;2.35;1.25;;;;;;;16.55;60.45;100637.16;6280738;22;20014;-80
2022/12/22 12:53:10;;;;;;;2.13;1.27;;;;;;;16.54;60.97;100638.91;6255045;22;20004;-77
2022/12/22 12:55:51;;;;;;;2.58;1.30;;;;;;;16.50;61.48;100637.19;6255104;22;20007;-77
2022/12/22 12:58:36;;;;;;;2.17;1.15;;;;;;;16.48;62.07;100631.16;6280195;22;20086;-77
2022/12/22 13:01:28;;;;;;;5.22;1.58;;;;;;;16.49;61.17;100630.28;6280503;22;20378;-77
2022/12/22 13:03:53;;;;;;;2.08;1.23;;;;;;;16.47;60.83;100628.59;6260315;22;20040;-80
2022/12/22 13:06:46;;;;;;;2.75;1.20;;;;;;;16.47;60.66;100633.78;6255047;22;20050;-77
2022/12/22 13:09:20;;;;;;;1.97;1.00;;;;;;;16.47;60.55;100623.41;6280635;22;20478;-77
2022/12/22 13:11:47;;;;;;;2.90;1.20;;;;;;;16.46;60.44;100625.09;6280619;22;20005;-77
2022/12/22 13:14:50;;;;;;;2.55;1.20;;;;;;;16.46;60.93;100612.13;6280983;22;20060;-77
2022/12/22 13:17:51;;;;;;;5.10;1.38;;;;;;;16.42;61.13;100608.72;6275167;22;20044;-78
2022/12/22 13:20:25;;;;;;;4.00;1.30;;;;;;;16.43;61.04;100609.56;6129464;23;20080;-78
2022/12/22 13:22:53;;;;;;;2.22;1.30;;;;;;;16.45;61.03;100610.41;6253026;22;20007;-78
2022/12/22 13:25:18;;;;;;;2.53;1.17;;;;;;;16.44;60.45;100600.91;6275631;22;20018;-77
2022/12/22 13:27:44;;;;;;;3.20;1.20;;;;;;;16.43;60.86;100600.03;6250388;22;20087;-78
2022/12/22 13:30:15;;;;;;;2.20;1.05;;;;;;;16.40;61.09;100592.28;6249499;22;20478;-77
2022/12/22 13:32:43;;;;;;;2.63;1.40;;;;;;;16.41;60.93;100582.75;6249926;22;19999;-77
2022/12/22 13:35:22;;;;;;;3.60;1.17;;;;;;;16.42;62.60;100587.06;6275309;22;20493;-77
2022/12/22 13:37:50;;;;;;;2.42;1.15;;;;;;;16.41;61.61;100582.75;6277489;22;20004;-78
2022/12/22 13:40:24;;;;;;;2.42;1.30;;;;;;;16.37;61.24;100566.31;6250083;22;20008;-77
2022/12/22 13:42:59;;;;;;;2.15;1.10;;;;;;;16.39;61.80;100568.91;6275190;22;20000;-78
2022/12/22 13:45:30;;;;;;;1.85;1.10;;;;;;;16.38;61.46;100564.59;6275190;22;20043;-78
2022/12/22 13:47:59;;;;;;;2.50;1.27;;;;;;;16.38;61.97;100564.59;6275241;22;20007;-77
2022/12/22 13:50:29;;;;;;;2.85;1.20;;;;;;;16.39;64.17;100561.13;6275041;22;20027;-79
2022/12/22 13:52:57;;;;;;;1.90;0.90;;;;;;;16.36;61.33;100559.41;6275372;22;20078;-78
2022/12/22 13:55:27;;;;;;;2.70;1.42;;;;;;;16.37;62.38;100558.53;6275311;22;20359;-79
2022/12/22 13:57:54;;;;;;;2.88;1.40;;;;;;;16.35;63.35;100555.09;6275229;22;20012;-78
2022/12/22 14:00:24;;;;;;;1.65;1.20;;;;;;;16.36;62.00;100554.22;6249972;22;20076;-77
2022/12/22 14:02:50;;;;;;;2.28;1.40;;;;;;;16.35;62.04;100551.63;6275183;22;20432;-80
2022/12/22 14:05:17;;;;;;;2.22;1.27;;;;;;;16.35;63.28;100552.50;6249673;22;20008;-79
2022/12/22 14:08:00;;;;;;;2.78;1.20;;;;;;;16.34;62.59;100553.38;6249995;22;20004;-78
2022/12/22 14:10:34;;;;;;;2.58;1.10;;;;;;;16.34;63.69;100549.91;6275803;22;20038;-78
2022/12/22 14:13:04;;;;;;;2.83;1.70;;;;;;;16.33;61.89;100550.78;6276526;22;20050;-78
2022/12/22 14:15:30;;;;;;;2.55;1.50;;;;;;;16.33;63.37;100550.78;6276953;22;20069;-78
2022/12/22 14:17:58;;;;;;;2.05;1.40;;;;;;;16.32;64.25;100544.72;6251239;22;20024;-78
2022/12/22 14:20:28;;;;;;;2.80;1.42;;;;;;;16.33;62.37;100535.19;6251361;22;20012;-78
2022/12/22 14:23:00;;;;;;;2.05;1.23;;;;;;;16.31;61.70;100530.03;6276983;22;20081;-77
2022/12/22 14:25:32;;;;;;;2.20;1.45;;;;;;;16.34;61.47;100529.16;6277101;22;20011;-77
2022/12/22 14:27:58;;;;;;;2.42;1.40;;;;;;;16.34;61.57;100527.41;6277253;22;20003;-78
2022/12/22 14:30:30;;;;;;;3.08;1.77;;;;;;;16.31;62.17;100523.97;6277035;22;20046;-77
2022/12/22 14:32:56;;;;;;;2.65;1.40;;;;;;;16.31;61.93;100529.16;6278322;22;20015;-78
2022/12/22 14:35:22;;;;;;;2.35;1.33;;;;;;;16.31;62.08;100521.38;6251207;22;20011;-77
2022/12/22 14:38:07;;;;;;;2.55;1.40;;;;;;;16.32;61.67;100517.91;6276885;22;20007;-79
2022/12/22 14:40:34;;;;;;;2.38;1.35;;;;;;;16.33;61.21;100520.50;6278752;22;20007;-77
2022/12/22 14:43:07;;;;;;;2.28;1.40;;;;;;;16.36;63.81;100517.00;6276880;22;20008;-77
2022/12/22 14:45:33;;;;;;;3.60;1.77;;;;;;;16.36;64.09;100515.25;6276748;22;20094;-79
2022/12/22 14:47:58;;;;;;;2.30;1.50;;;;;;;16.40;63.79;100518.72;6251371;22;20384;-77
2022/12/22 14:50:28;;;;;;;2.30;1.50;;;;;;;16.44;63.34;100513.47;6251319;22;20091;-78
2022/12/22 14:53:03;;;;;;;3.25;1.60;;;;;;;16.42;64.89;100512.63;6276610;22;20087;-78
2022/12/22 14:55:38;;;;;;;2.80;1.50;;;;;;;16.47;62.94;100512.56;6276699;22;20313;-77
2022/12/22 14:58:14;;;;;;;2.33;1.40;;;;;;;16.47;64.19;100512.56;6276842;22;20031;-77
2022/12/22 15:00:42;;;;;;;2.78;1.58;;;;;;;16.47;64.04;100507.38;6277483;22;20004;-77
2022/12/22 15:03:31;;;;;;;1.90;1.40;;;;;;;16.47;62.95;100511.72;6276527;22;20000;-78
2022/12/22 15:06:25;;;;;;;1.80;1.40;;;;;;;16.49;63.01;100495.22;6276586;22;20035;-79
2022/12/22 15:08:53;;;;;;;2.22;1.42;;;;;;;16.49;64.97;100495.22;6279709;22;20000;-79
2022/12/22 15:11:22;;;;;;;2.55;1.45;;;;;;;16.52;63.99;100490.00;6278092;22;20010;-78
2022/12/22 15:13:50;;;;;;;3.67;1.73;;;;;;;16.48;64.29;100487.44;6278282;22;20039;-78
2022/12/22 15:16:20;;;;;;;2.80;1.30;;;;;;;16.50;62.46;100490.88;6280926;22;20015;-78
2022/12/22 15:18:47;;;;;;;2.20;1.45;;;;;;;16.51;65.02;100488.28;6256542;22;20014;-78
2022/12/22 15:21:14;;;;;;;1.92;1.40;;;;;;;16.53;63.49;100476.16;6281794;22;20003;-77
2022/12/22 15:23:40;;;;;;;2.42;1.42;;;;;;;16.49;62.73;100476.19;6281121;22;20327;-77